Time;durP1;ratioP1;P1;durP2;ratioP2;P2;SDS_P1;SDS_P2;PMS_P1;PMS_P2;Temp;Humidity;BMP_temperature;BMP_pressure;BME280_temperature;BME280_humidity;BME280_pressure;Samples;Min_cycle;Max_cycle;Signal;HPM_P1;HPM_P2
2020/12/20 00:01:35;;;;;;;15.55;9.77;;;;;;;;;;4361351;32;20151;-75
2020/12/20 00:04:00;;;;;;;21.63;9.87;;;;;;;;;;4362312;32;20247;-75
2020/12/20 00:06:25;;;;;;;18.00;9.73;;;;;;;;;;4348317;33;20187;-74
2020/12/20 00:08:50;;;;;;;18.40;9.87;;;;;;;;;;4360773;33;20474;-75
2020/12/20 00:11:16;;;;;;;19.90;10.73;;;;;;;;;;4361496;32;20143;-74
2020/12/20 00:13:41;;;;;;;20.37;10.82;;;;;;;;;;4361200;32;20205;-75
2020/12/20 00:16:06;;;;;;;19.52;10.35;;;;;;;;;;4360967;32;20159;-75
2020/12/20 00:18:31;;;;;;;17.83;10.63;;;;;;;;;;4361498;32;20192;-75
2020/12/20 00:20:57;;;;;;;20.25;9.88;;;;;;;;;;4361427;32;20444;-74
2020/12/20 00:23:22;;;;;;;20.05;10.73;;;;;;;;;;4361182;32;20161;-74
2020/12/20 00:25:47;;;;;;;17.55;10.40;;;;;;;;;;4347559;33;20171;-74
2020/12/20 00:28:12;;;;;;;16.55;10.07;;;;;;;;;;4360711;32;20135;-75
2020/12/20 00:30:38;;;;;;;16.25;10.27;;;;;;;;;;4360689;32;20549;-75
2020/12/20 00:33:03;;;;;;;25.23;10.52;;;;;;;;;;4361343;32;20226;-74
2020/12/20 00:35:28;;;;;;;20.70;10.82;;;;;;;;;;4361066;32;20507;-74
2020/12/20 00:37:53;;;;;;;19.02;10.90;;;;;;;;;;4360749;32;20166;-74
2020/12/20 00:40:19;;;;;;;18.17;10.48;;;;;;;;;;4360518;33;20185;-74
2020/12/20 00:42:44;;;;;;;17.75;9.88;;;;;;;;;;4360981;32;20135;-75
2020/12/20 00:45:12;;;;;;;18.48;9.60;;;;;;;;;;4361089;32;20139;-74
2020/12/20 00:47:37;;;;;;;19.27;10.40;;;;;;;;;;4361300;32;20552;-75
2020/12/20 00:50:03;;;;;;;17.52;9.75;;;;;;;;;;4360904;32;20139;-75
2020/12/20 00:52:28;;;;;;;22.62;10.30;;;;;;;;;;4360877;32;20157;-74
2020/12/20 00:54:53;;;;;;;20.88;10.32;;;;;;;;;;4360324;33;20162;-74
2020/12/20 00:57:19;;;;;;;22.52;10.60;;;;;;;;;;4360587;32;20142;-74
2020/12/20 00:59:44;;;;;;;18.95;10.65;;;;;;;;;;4360653;33;20186;-75
2020/12/20 01:02:09;;;;;;;20.67;11.10;;;;;;;;;;4360306;32;20147;-75
2020/12/20 01:04:34;;;;;;;18.87;10.43;;;;;;;;;;4346707;33;20186;-75
2020/12/20 01:07:00;;;;;;;26.25;10.18;;;;;;;;;;4360472;32;20135;-74
2020/12/20 01:09:25;;;;;;;17.58;9.95;;;;;;;;;;4360651;32;20181;-74
2020/12/20 01:11:51;;;;;;;17.65;9.80;;;;;;;;;;4360060;33;20623;-74
2020/12/20 01:14:16;;;;;;;20.48;10.43;;;;;;;;;;4360158;32;20139;-74
2020/12/20 01:16:41;;;;;;;21.77;10.93;;;;;;;;;;4359928;32;20619;-75
2020/12/20 01:19:06;;;;;;;18.90;10.15;;;;;;;;;;4361267;32;20199;-75
2020/12/20 01:21:33;;;;;;;19.42;10.25;;;;;;;;;;4360826;32;20147;-75
2020/12/20 01:23:58;;;;;;;15.65;9.48;;;;;;;;;;4360120;32;20139;-74
2020/12/20 01:26:23;;;;;;;18.25;10.20;;;;;;;;;;4361032;32;20135;-74
2020/12/20 01:28:48;;;;;;;21.80;10.18;;;;;;;;;;4360341;32;20162;-74
2020/12/20 01:31:14;;;;;;;18.12;9.25;;;;;;;;;;4360807;32;20139;-74
2020/12/20 01:33:40;;;;;;;18.80;10.10;;;;;;;;;;4359996;33;20190;-74
2020/12/20 01:36:09;;;;;;;17.50;9.10;;;;;;;;;;4346239;33;20630;-74
2020/12/20 01:38:34;;;;;;;16.45;8.60;;;;;;;;;;4359875;32;20170;-75
2020/12/20 01:41:00;;;;;;;20.23;9.27;;;;;;;;;;4359927;32;20155;-74
2020/12/20 01:43:25;;;;;;;19.60;8.73;;;;;;;;;;4360217;32;20169;-75
2020/12/20 01:45:51;;;;;;;16.23;8.40;;;;;;;;;;4359998;33;20221;-74
2020/12/20 01:48:16;;;;;;;16.45;8.52;;;;;;;;;;4360292;33;20432;-75
2020/12/20 01:50:43;;;;;;;17.30;9.63;;;;;;;;;;4346514;33;20221;-75
2020/12/20 01:53:08;;;;;;;18.15;7.95;;;;;;;;;;4360213;33;20139;-75
2020/12/20 01:55:33;;;;;;;16.15;7.95;;;;;;;;;;4360306;33;20154;-74
2020/12/20 01:57:59;;;;;;;18.23;8.00;;;;;;;;;;4360323;33;20143;-75
2020/12/20 02:00:24;;;;;;;17.70;7.80;;;;;;;;;;4360101;33;20513;-74
2020/12/20 02:02:49;;;;;;;20.75;8.35;;;;;;;;;;4359767;33;20143;-75
2020/12/20 02:05:14;;;;;;;16.12;7.78;;;;;;;;;;4360226;33;20142;-74
2020/12/20 02:07:40;;;;;;;13.93;6.95;;;;;;;;;;4359616;33;20135;-74
2020/12/20 02:10:05;;;;;;;15.05;7.60;;;;;;;;;;4359695;33;20474;-75
2020/12/20 02:12:31;;;;;;;16.42;7.07;;;;;;;;;;4359865;33;20582;-74
2020/12/20 02:14:56;;;;;;;18.62;6.97;;;;;;;;;;4359561;33;20212;-74
2020/12/20 02:17:22;;;;;;;13.85;6.72;;;;;;;;;;4359887;33;20190;-74
2020/12/20 02:19:47;;;;;;;18.27;6.62;;;;;;;;;;4359857;33;20143;-74
2020/12/20 02:22:13;;;;;;;15.85;6.93;;;;;;;;;;4360077;33;20142;-75
2020/12/20 02:24:39;;;;;;;16.67;6.80;;;;;;;;;;4359519;33;20184;-75
2020/12/20 02:27:04;;;;;;;17.35;7.18;;;;;;;;;;4359482;33;20181;-75
2020/12/20 02:29:29;;;;;;;15.38;5.87;;;;;;;;;;4359516;33;20139;-75
2020/12/20 02:31:54;;;;;;;15.68;6.47;;;;;;;;;;4359400;33;20168;-75
2020/12/20 02:34:20;;;;;;;10.82;5.72;;;;;;;;;;4360349;33;20224;-75
2020/12/20 02:36:45;;;;;;;12.63;5.72;;;;;;;;;;4359400;33;20169;-74
2020/12/20 02:39:11;;;;;;;16.00;6.28;;;;;;;;;;4360742;33;20213;-74
2020/12/20 02:41:36;;;;;;;15.77;5.85;;;;;;;;;;4360143;33;20175;-75
2020/12/20 02:44:02;;;;;;;14.63;5.55;;;;;;;;;;4360287;33;20170;-74
2020/12/20 02:46:27;;;;;;;16.37;6.40;;;;;;;;;;4360055;33;20139;-74
2020/12/20 02:48:52;;;;;;;12.15;6.00;;;;;;;;;;4359704;33;20571;-75
2020/12/20 02:51:17;;;;;;;16.42;6.45;;;;;;;;;;4359858;33;20139;-75
2020/12/20 02:53:44;;;;;;;14.82;5.40;;;;;;;;;;4360277;33;20143;-75
2020/12/20 02:56:10;;;;;;;15.88;6.07;;;;;;;;;;4359894;32;20151;-74
2020/12/20 02:58:35;;;;;;;17.87;6.05;;;;;;;;;;4348761;33;20167;-75
2020/12/20 03:01:00;;;;;;;14.90;6.37;;;;;;;;;;4349211;33;20167;-75
2020/12/20 03:03:25;;;;;;;18.58;6.37;;;;;;;;;;4362363;32;20474;-75
2020/12/20 03:05:50;;;;;;;14.15;6.62;;;;;;;;;;4362495;32;20434;-74
2020/12/20 03:08:16;;;;;;;15.63;5.97;;;;;;;;;;4362280;33;20576;-74
2020/12/20 03:10:41;;;;;;;19.83;6.20;;;;;;;;;;4362420;32;20170;-75
2020/12/20 03:13:06;;;;;;;15.40;6.18;;;;;;;;;;4361730;32;20209;-75
2020/12/20 03:15:32;;;;;;;18.02;6.07;;;;;;;;;;4362096;32;20186;-75
2020/12/20 03:17:57;;;;;;;15.90;6.50;;;;;;;;;;4362047;32;20159;-75
2020/12/20 03:20:22;;;;;;;10.82;5.85;;;;;;;;;;4348084;33;20175;-75
2020/12/20 03:22:47;;;;;;;16.20;6.28;;;;;;;;;;4362199;32;20131;-75
2020/12/20 03:25:13;;;;;;;17.80;7.28;;;;;;;;;;4362422;32;20140;-75
2020/12/20 03:27:38;;;;;;;21.05;7.00;;;;;;;;;;4361803;32;20486;-75
2020/12/20 03:30:04;;;;;;;15.02;7.15;;;;;;;;;;4361729;32;20502;-74
2020/12/20 03:32:35;;;;;;;15.60;6.53;;;;;;;;;;4362933;32;20135;-75
2020/12/20 03:35:00;;;;;;;11.30;6.30;;;;;;;;;;4362326;32;20159;-75
2020/12/20 03:37:26;;;;;;;16.17;7.47;;;;;;;;;;4361954;32;20147;-75
2020/12/20 03:39:51;;;;;;;17.70;6.90;;;;;;;;;;4361704;32;20135;-75
2020/12/20 03:42:19;;;;;;;14.40;7.28;;;;;;;;;;4348113;33;20253;-75
2020/12/20 03:44:45;;;;;;;18.77;7.47;;;;;;;;;;4361259;32;20143;-74
2020/12/20 03:47:10;;;;;;;19.35;7.70;;;;;;;;;;4361902;32;20591;-74
2020/12/20 03:49:35;;;;;;;17.92;7.95;;;;;;;;;;4361995;32;20158;-75
2020/12/20 03:52:00;;;;;;;15.88;7.45;;;;;;;;;;4361337;33;20163;-75
2020/12/20 03:54:26;;;;;;;17.27;7.30;;;;;;;;;;4361947;32;20178;-74
2020/12/20 03:56:54;;;;;;;16.27;7.57;;;;;;;;;;4361363;32;20175;-74
2020/12/20 03:59:19;;;;;;;14.90;7.10;;;;;;;;;;4362466;32;20573;-75
2020/12/20 04:01:44;;;;;;;13.18;7.07;;;;;;;;;;4363152;32;20190;-75
2020/12/20 04:04:09;;;;;;;17.58;8.25;;;;;;;;;;4361700;32;20190;-75
2020/12/20 04:06:35;;;;;;;16.77;7.40;;;;;;;;;;4361243;32;20147;-74
2020/12/20 04:09:00;;;;;;;20.37;7.57;;;;;;;;;;4361755;32;20241;-75
2020/12/20 04:11:25;;;;;;;15.03;7.97;;;;;;;;;;4347720;33;20232;-75
2020/12/20 04:13:50;;;;;;;18.23;7.80;;;;;;;;;;4361083;32;20242;-75
2020/12/20 04:16:15;;;;;;;15.63;7.82;;;;;;;;;;4361093;32;20224;-74
2020/12/20 04:18:41;;;;;;;17.70;7.78;;;;;;;;;;4361293;33;20193;-75
2020/12/20 04:21:06;;;;;;;19.48;8.25;;;;;;;;;;4361361;32;20154;-76
2020/12/20 04:23:31;;;;;;;14.65;7.55;;;;;;;;;;4361376;32;20166;-74
2020/12/20 04:25:56;;;;;;;17.02;7.40;;;;;;;;;;4361615;32;20553;-75
2020/12/20 04:28:22;;;;;;;20.35;7.62;;;;;;;;;;4360819;32;20171;-74
2020/12/20 04:30:47;;;;;;;21.10;8.00;;;;;;;;;;4360748;33;20136;-74
2020/12/20 04:33:12;;;;;;;18.90;7.62;;;;;;;;;;4361154;32;20132;-75
2020/12/20 04:35:38;;;;;;;16.58;7.93;;;;;;;;;;4362088;32;20148;-75
2020/12/20 04:38:03;;;;;;;16.77;7.50;;;;;;;;;;4360603;33;20448;-75
2020/12/20 04:40:28;;;;;;;12.10;6.63;;;;;;;;;;4347159;33;20526;-75
2020/12/20 04:43:03;;;;;;;21.07;8.30;;;;;;;;;;4360838;32;20170;-75
2020/12/20 04:45:29;;;;;;;14.43;7.93;;;;;;;;;;4361041;32;20214;-75
2020/12/20 04:47:56;;;;;;;13.50;8.27;;;;;;;;;;4361180;32;20135;-75
2020/12/20 04:50:22;;;;;;;21.27;8.87;;;;;;;;;;4360427;32;20505;-75
2020/12/20 04:52:49;;;;;;;13.23;7.43;;;;;;;;;;4360947;32;20139;-75
2020/12/20 04:55:14;;;;;;;15.70;7.80;;;;;;;;;;4360897;32;20426;-75
2020/12/20 04:57:40;;;;;;;13.37;7.30;;;;;;;;;;4360244;32;20174;-75
2020/12/20 05:00:06;;;;;;;17.90;7.23;;;;;;;;;;4346983;33;20159;-75
2020/12/20 05:02:32;;;;;;;13.87;8.03;;;;;;;;;;4360408;33;20206;-75
2020/12/20 05:04:57;;;;;;;16.53;8.53;;;;;;;;;;4360565;32;20194;-74
2020/12/20 05:07:23;;;;;;;17.03;8.67;;;;;;;;;;4360587;32;20136;-75
2020/12/20 05:09:48;;;;;;;16.47;7.90;;;;;;;;;;4360321;32;20165;-74
2020/12/20 05:12:25;;;;;;;16.17;7.70;;;;;;;;;;4360401;33;20158;-75
2020/12/20 05:14:51;;;;;;;18.17;8.37;;;;;;;;;;4360625;32;20135;-74
2020/12/20 05:17:17;;;;;;;15.20;7.57;;;;;;;;;;4360129;32;20166;-75
2020/12/20 05:19:42;;;;;;;19.30;8.43;;;;;;;;;;4359704;32;20179;-75
2020/12/20 05:22:17;;;;;;;26.33;9.07;;;;;;;;;;4360251;32;20135;-75
2020/12/20 05:24:46;;;;;;;22.27;8.70;;;;;;;;;;4359946;33;20170;-74
2020/12/20 05:27:28;;;;;;;17.17;8.17;;;;;;;;;;4359852;32;20199;-75
2020/12/20 05:29:53;;;;;;;14.83;8.50;;;;;;;;;;4360252;32;20247;-75
2020/12/20 05:32:31;;;;;;;16.83;8.53;;;;;;;;;;4360886;32;20217;-75
2020/12/20 05:34:57;;;;;;;16.30;7.97;;;;;;;;;;4360285;32;20533;-74
2020/12/20 05:37:26;;;;;;;17.80;8.80;;;;;;;;;;4346385;33;20193;-74
2020/12/20 05:39:51;;;;;;;17.63;9.00;;;;;;;;;;4346778;33;20174;-75
2020/12/20 05:42:20;;;;;;;23.60;10.03;;;;;;;;;;4346500;33;20465;-75
2020/12/20 05:44:45;;;;;;;22.97;9.80;;;;;;;;;;4346396;33;20608;-75
2020/12/20 05:47:10;;;;;;;26.63;10.43;;;;;;;;;;4346675;33;20222;-75
2020/12/20 05:49:37;;;;;;;23.60;9.63;;;;;;;;;;4346372;33;20486;-75
2020/12/20 05:52:04;;;;;;;25.50;10.67;;;;;;;;;;4360252;33;20174;-75
2020/12/20 05:54:33;;;;;;;24.10;10.33;;;;;;;;;;4359837;33;20220;-75
2020/12/20 05:57:11;;;;;;;27.13;10.50;;;;;;;;;;4359546;33;20155;-75
2020/12/20 05:59:37;;;;;;;24.77;10.73;;;;;;;;;;4359937;33;20146;-75
2020/12/20 06:02:03;;;;;;;22.30;9.97;;;;;;;;;;4346582;33;20281;-74
2020/12/20 06:04:29;;;;;;;23.27;9.43;;;;;;;;;;4359930;33;20158;-75
2020/12/20 06:06:55;;;;;;;21.17;9.00;;;;;;;;;;4360522;33;20203;-75
2020/12/20 06:09:23;;;;;;;23.23;9.40;;;;;;;;;;4359737;33;20142;-74
2020/12/20 06:11:50;;;;;;;24.70;10.47;;;;;;;;;;4345936;33;20604;-75
2020/12/20 06:14:17;;;;;;;23.10;10.67;;;;;;;;;;4346159;33;20652;-74
2020/12/20 06:16:43;;;;;;;22.80;9.63;;;;;;;;;;4359672;33;20166;-75
2020/12/20 06:19:09;;;;;;;23.27;10.17;;;;;;;;;;4360802;33;20173;-74
2020/12/20 06:21:53;;;;;;;23.23;10.88;;;;;;;;;;4359655;32;20498;-74
2020/12/20 06:24:21;;;;;;;22.55;10.13;;;;;;;;;;4346032;33;20194;-75
2020/12/20 06:26:49;;;;;;;21.57;10.00;;;;;;;;;;4359673;33;20545;-75
2020/12/20 06:29:18;;;;;;;25.10;10.10;;;;;;;;;;4359508;33;20173;-75
2020/12/20 06:31:43;;;;;;;24.27;10.80;;;;;;;;;;4347148;33;20213;-75
2020/12/20 06:34:13;;;;;;;25.67;10.00;;;;;;;;;;4362418;32;20502;-75
2020/12/20 06:36:38;;;;;;;24.07;9.83;;;;;;;;;;4362571;32;20182;-75
2020/12/20 06:39:04;;;;;;;23.27;10.37;;;;;;;;;;4348817;33;20179;-74
2020/12/20 06:41:33;;;;;;;27.50;10.25;;;;;;;;;;4349100;33;20248;-75
2020/12/20 06:43:58;;;;;;;26.33;10.37;;;;;;;;;;4362574;32;20173;-75
2020/12/20 06:46:39;;;;;;;23.40;9.93;;;;;;;;;;4349247;33;20631;-75
2020/12/20 06:49:23;;;;;;;28.33;10.35;;;;;;;;;;4349354;33;20661;-74
2020/12/20 06:51:48;;;;;;;29.75;10.30;;;;;;;;;;4348924;33;20231;-74
2020/12/20 06:54:23;;;;;;;22.40;9.85;;;;;;;;;;4363107;32;20139;-75
2020/12/20 06:57:07;;;;;;;26.70;10.70;;;;;;;;;;4346358;33;20175;-74
2020/12/20 06:59:43;;;;;;;18.48;9.50;;;;;;;;;;4334815;33;20194;-75
2020/12/20 07:02:08;;;;;;;23.12;10.10;;;;;;;;;;4341128;33;20199;-75
2020/12/20 07:04:39;;;;;;;22.60;10.40;;;;;;;;;;4348332;33;20182;-75
2020/12/20 07:07:05;;;;;;;25.87;10.40;;;;;;;;;;4362583;32;20572;-74
2020/12/20 07:09:33;;;;;;;19.77;9.30;;;;;;;;;;4362297;32;20135;-75
2020/12/20 07:11:58;;;;;;;23.52;9.73;;;;;;;;;;4348475;33;20530;-75
2020/12/20 07:14:24;;;;;;;22.95;9.82;;;;;;;;;;4362678;32;20185;-75
2020/12/20 07:16:50;;;;;;;25.20;10.27;;;;;;;;;;4348209;33;20182;-75
2020/12/20 07:19:24;;;;;;;21.58;8.95;;;;;;;;;;4348478;33;20226;-75
2020/12/20 07:21:55;;;;;;;23.07;9.40;;;;;;;;;;4362206;32;20135;-75
2020/12/20 07:24:31;;;;;;;22.77;9.97;;;;;;;;;;4362541;32;20629;-75
2020/12/20 07:27:00;;;;;;;23.03;9.90;;;;;;;;;;4348164;33;20162;-75
2020/12/20 07:29:25;;;;;;;22.70;9.47;;;;;;;;;;4361412;32;20180;-75
2020/12/20 07:31:52;;;;;;;27.07;10.00;;;;;;;;;;4348207;33;20159;-75
2020/12/20 07:34:24;;;;;;;27.83;10.50;;;;;;;;;;4347941;33;20191;-75
2020/12/20 07:36:50;;;;;;;29.23;9.57;;;;;;;;;;4347732;33;20170;-75
2020/12/20 07:39:18;;;;;;;27.37;9.60;;;;;;;;;;4348412;33;20163;-75
2020/12/20 07:41:43;;;;;;;26.23;10.23;;;;;;;;;;4347787;32;20209;-75
2020/12/20 07:44:09;;;;;;;21.33;9.70;;;;;;;;;;4361784;33;20439;-75
2020/12/20 07:46:35;;;;;;;24.35;9.23;;;;;;;;;;4361455;32;20139;-75
2020/12/20 07:49:04;;;;;;;25.25;9.80;;;;;;;;;;4348150;33;20238;-74
2020/12/20 07:51:30;;;;;;;20.00;8.80;;;;;;;;;;4347688;33;20197;-76
2020/12/20 07:53:56;;;;;;;21.67;9.67;;;;;;;;;;4362128;32;20138;-76
2020/12/20 07:56:22;;;;;;;28.40;10.47;;;;;;;;;;4347879;33;20194;-76
2020/12/20 07:58:48;;;;;;;26.13;9.83;;;;;;;;;;4347655;33;20175;-75
2020/12/20 08:01:13;;;;;;;25.67;10.47;;;;;;;;;;4361043;32;20591;-75
2020/12/20 08:03:39;;;;;;;21.57;9.80;;;;;;;;;;4345713;33;20506;-75
2020/12/20 08:06:05;;;;;;;23.87;10.17;;;;;;;;;;4356775;33;20599;-75
2020/12/20 08:08:31;;;;;;;26.77;10.30;;;;;;;;;;4347825;33;20189;-75
2020/12/20 08:10:56;;;;;;;20.57;9.87;;;;;;;;;;4361869;32;20135;-75
2020/12/20 08:13:21;;;;;;;27.27;10.07;;;;;;;;;;4361748;32;20170;-75
2020/12/20 08:15:47;;;;;;;29.43;10.77;;;;;;;;;;4347406;33;20174;-75
2020/12/20 08:18:13;;;;;;;25.10;10.63;;;;;;;;;;4361092;32;20252;-75
2020/12/20 08:20:38;;;;;;;26.07;10.27;;;;;;;;;;4347497;33;20163;-75
2020/12/20 08:23:04;;;;;;;21.93;9.87;;;;;;;;;;4347156;33;20193;-75
2020/12/20 08:25:29;;;;;;;22.40;9.73;;;;;;;;;;4347394;33;20162;-75
2020/12/20 08:27:55;;;;;;;27.90;9.37;;;;;;;;;;4348144;33;20193;-75
2020/12/20 08:30:23;;;;;;;35.70;11.43;;;;;;;;;;4360977;32;20171;-75
2020/12/20 08:32:48;;;;;;;28.50;9.87;;;;;;;;;;4347606;33;20179;-75
2020/12/20 08:35:14;;;;;;;21.42;9.55;;;;;;;;;;4361703;32;20287;-75
2020/12/20 08:37:39;;;;;;;26.23;9.60;;;;;;;;;;4346911;33;20171;-75
2020/12/20 08:40:15;;;;;;;25.27;10.90;;;;;;;;;;4347101;33;20186;-76
2020/12/20 08:42:41;;;;;;;22.47;9.73;;;;;;;;;;4347065;33;20216;-75
2020/12/20 08:45:13;;;;;;;27.73;10.57;;;;;;;;;;4347819;33;20166;-75
2020/12/20 08:47:39;;;;;;;29.67;9.63;;;;;;;;;;4347862;33;20170;-75
2020/12/20 08:50:04;;;;;;;26.73;9.93;;;;;;;;;;4347265;33;20517;-75
2020/12/20 08:52:31;;;;;;;22.00;9.83;;;;;;;;;;4361047;32;20142;-75
2020/12/20 08:54:57;;;;;;;26.02;10.05;;;;;;;;;;4360060;32;20201;-75
2020/12/20 08:57:25;;;;;;;28.77;11.37;;;;;;;;;;4353351;33;20263;-75
2020/12/20 08:59:51;;;;;;;21.62;9.80;;;;;;;;;;4346937;33;20201;-75
2020/12/20 09:02:19;;;;;;;26.90;11.03;;;;;;;;;;4346667;33;20226;-75
2020/12/20 09:04:58;;;;;;;24.23;9.67;;;;;;;;;;4358896;33;21820;-75
2020/12/20 09:07:35;;;;;;;30.73;9.97;;;;;;;;;;4351724;32;20178;-75
2020/12/20 09:10:12;;;;;;;27.37;10.10;;;;;;;;;;4346593;32;20147;-75
2020/12/20 09:12:46;;;;;;;31.93;10.27;;;;;;;;;;4345626;33;20139;-75
2020/12/20 09:15:13;;;;;;;27.17;10.40;;;;;;;;;;4345834;33;20178;-75
2020/12/20 09:17:42;;;;;;;26.47;8.87;;;;;;;;;;4348295;33;20175;-75
2020/12/20 09:20:09;;;;;;;31.33;9.30;;;;;;;;;;4346216;33;20234;-76
2020/12/20 09:22:45;;;;;;;31.07;9.77;;;;;;;;;;4345745;33;20178;-76
2020/12/20 09:25:11;;;;;;;27.00;8.17;;;;;;;;;;4348100;32;20201;-76
2020/12/20 09:27:36;;;;;;;26.97;8.60;;;;;;;;;;4346392;33;20574;-76
2020/12/20 09:30:04;;;;;;;20.98;8.10;;;;;;;;;;4360205;32;20193;-76
2020/12/20 09:32:36;;;;;;;23.23;8.80;;;;;;;;;;4360375;32;20201;-76
2020/12/20 09:35:08;;;;;;;29.20;8.55;;;;;;;;;;4345981;33;20197;-76
2020/12/20 09:37:51;;;;;;;23.25;7.93;;;;;;;;;;4346525;33;20590;-76
2020/12/20 09:40:16;;;;;;;22.27;7.73;;;;;;;;;;4346958;33;20190;-82
2020/12/20 09:42:43;;;;;;;27.67;7.72;;;;;;;;;;4346465;33;20194;-78
2020/12/20 09:45:09;;;;;;;26.98;7.80;;;;;;;;;;4347915;32;20209;-76
2020/12/20 09:47:39;;;;;;;28.00;9.05;;;;;;;;;;4331475;33;20163;-76
2020/12/20 09:50:05;;;;;;;31.42;7.90;;;;;;;;;;4331617;33;20563;-78
2020/12/20 09:52:30;;;;;;;23.05;7.53;;;;;;;;;;4331370;33;20589;-77
2020/12/20 09:54:55;;;;;;;22.58;7.10;;;;;;;;;;4331514;33;20194;-76
2020/12/20 09:57:20;;;;;;;17.87;7.00;;;;;;;;;;4340222;33;20181;-76
2020/12/20 09:59:46;;;;;;;29.35;7.72;;;;;;;;;;4360253;33;20566;-76
2020/12/20 10:02:11;;;;;;;19.87;6.90;;;;;;;;;;4346571;33;20167;-76
2020/12/20 10:04:36;;;;;;;21.65;7.93;;;;;;;;;;4346555;33;20189;-76
2020/12/20 10:07:01;;;;;;;25.75;6.93;;;;;;;;;;4349584;33;20316;-77
2020/12/20 10:09:26;;;;;;;23.35;8.82;;;;;;;;;;4362607;32;20132;-76
2020/12/20 10:11:52;;;;;;;31.20;8.82;;;;;;;;;;4362616;32;20166;-76
2020/12/20 10:14:17;;;;;;;21.98;7.35;;;;;;;;;;4349159;33;20233;-76
2020/12/20 10:16:42;;;;;;;21.62;7.37;;;;;;;;;;4361936;32;20244;-77
2020/12/20 10:19:08;;;;;;;21.00;6.78;;;;;;;;;;4362307;32;20175;-76
2020/12/20 10:21:33;;;;;;;22.40;6.47;;;;;;;;;;4348934;33;20213;-77
2020/12/20 10:23:58;;;;;;;22.48;6.15;;;;;;;;;;4361358;32;20182;-76
2020/12/20 10:26:23;;;;;;;20.27;6.60;;;;;;;;;;4349223;33;20193;-78
2020/12/20 10:28:49;;;;;;;20.88;7.65;;;;;;;;;;4349248;33;20202;-76
2020/12/20 10:31:23;;;;;;;21.45;7.18;;;;;;;;;;4348893;33;20167;-77
2020/12/20 10:33:48;;;;;;;17.70;6.28;;;;;;;;;;4349205;33;20182;-76
2020/12/20 10:36:13;;;;;;;22.30;6.85;;;;;;;;;;4349193;33;20201;-76
2020/12/20 10:38:39;;;;;;;24.50;6.90;;;;;;;;;;4362466;32;20162;-76
2020/12/20 10:41:07;;;;;;;20.15;6.60;;;;;;;;;;4349191;33;20162;-76
2020/12/20 10:43:32;;;;;;;22.33;6.68;;;;;;;;;;4349000;33;20194;-75
2020/12/20 10:45:57;;;;;;;21.62;6.47;;;;;;;;;;4348587;33;20188;-76
2020/12/20 10:48:23;;;;;;;21.35;6.50;;;;;;;;;;4348655;33;20163;-76
2020/12/20 10:50:48;;;;;;;17.50;6.28;;;;;;;;;;4363178;32;20135;-77
2020/12/20 10:53:13;;;;;;;22.90;5.95;;;;;;;;;;4362241;32;20135;-76
2020/12/20 10:55:38;;;;;;;22.33;6.32;;;;;;;;;;4362396;32;20489;-76
2020/12/20 10:58:04;;;;;;;25.83;6.53;;;;;;;;;;4348395;33;20197;-77
2020/12/20 11:00:29;;;;;;;17.85;5.55;;;;;;;;;;4348093;33;20171;-77
2020/12/20 11:02:54;;;;;;;16.77;5.90;;;;;;;;;;4347777;33;20638;-76
2020/12/20 11:05:19;;;;;;;25.27;6.62;;;;;;;;;;4348269;33;20213;-76
2020/12/20 11:07:45;;;;;;;21.08;5.95;;;;;;;;;;4347958;33;20236;-77
2020/12/20 11:10:10;;;;;;;19.15;6.60;;;;;;;;;;4348770;33;20182;-76
2020/12/20 11:12:35;;;;;;;19.08;6.03;;;;;;;;;;4349078;33;20189;-76
2020/12/20 11:15:00;;;;;;;22.55;6.55;;;;;;;;;;4361941;33;20154;-76
2020/12/20 11:17:26;;;;;;;19.02;6.90;;;;;;;;;;4360883;32;20166;-76
2020/12/20 11:19:54;;;;;;;23.15;6.03;;;;;;;;;;4348727;33;20485;-76
2020/12/20 11:22:20;;;;;;;17.42;5.87;;;;;;;;;;4348654;33;20321;-76
2020/12/20 11:24:45;;;;;;;17.02;6.00;;;;;;;;;;4348792;33;20171;-76
2020/12/20 11:27:11;;;;;;;22.35;6.32;;;;;;;;;;4357846;32;20175;-75
2020/12/20 11:29:39;;;;;;;18.77;5.87;;;;;;;;;;4361344;32;20202;-76
2020/12/20 11:32:13;;;;;;;16.00;6.07;;;;;;;;;;4366464;32;20150;-76
2020/12/20 11:34:44;;;;;;;20.67;7.25;;;;;;;;;;4376892;32;20161;-76
2020/12/20 11:37:10;;;;;;;22.15;7.20;;;;;;;;;;4376067;32;20180;-76
2020/12/20 11:39:35;;;;;;;24.87;7.20;;;;;;;;;;4373972;32;20154;-76
2020/12/20 11:42:00;;;;;;;20.90;7.80;;;;;;;;;;4361188;32;20151;-76
2020/12/20 11:44:26;;;;;;;23.40;8.18;;;;;;;;;;4347524;33;20560;-76
2020/12/20 11:46:51;;;;;;;20.20;8.25;;;;;;;;;;4347602;33;20175;-76
2020/12/20 11:49:17;;;;;;;21.58;7.70;;;;;;;;;;4361356;32;20135;-76
2020/12/20 11:51:54;;;;;;;23.30;8.02;;;;;;;;;;4347343;33;20247;-76
2020/12/20 11:54:19;;;;;;;21.15;8.90;;;;;;;;;;4347793;33;20197;-76
2020/12/20 11:56:45;;;;;;;19.90;8.13;;;;;;;;;;4361267;32;20561;-76
2020/12/20 11:59:10;;;;;;;21.83;8.50;;;;;;;;;;4360867;32;20139;-76
2020/12/20 12:01:36;;;;;;;20.00;8.20;;;;;;;;;;4339305;33;20573;-76
2020/12/20 12:04:01;;;;;;;19.77;8.05;;;;;;;;;;4343119;33;20193;-76
2020/12/20 12:06:30;;;;;;;19.20;7.20;;;;;;;;;;4360775;32;20143;-76
2020/12/20 12:08:55;;;;;;;21.75;8.25;;;;;;;;;;4347153;33;20159;-76
2020/12/20 12:11:23;;;;;;;22.80;7.90;;;;;;;;;;4346976;33;20216;-76
2020/12/20 12:13:49;;;;;;;19.75;7.60;;;;;;;;;;4347238;33;20181;-76
2020/12/20 12:16:20;;;;;;;26.70;8.65;;;;;;;;;;4360821;32;20150;-77
2020/12/20 12:18:50;;;;;;;20.48;8.88;;;;;;;;;;4360284;32;20191;-76
2020/12/20 12:21:18;;;;;;;20.95;9.20;;;;;;;;;;4347407;33;20159;-77
2020/12/20 12:23:47;;;;;;;23.50;8.90;;;;;;;;;;4358462;33;20503;-76
2020/12/20 12:26:12;;;;;;;27.83;8.82;;;;;;;;;;4357271;32;20235;-76
2020/12/20 12:28:41;;;;;;;19.87;8.90;;;;;;;;;;4346578;33;20201;-76
2020/12/20 12:31:06;;;;;;;28.20;9.45;;;;;;;;;;4347452;33;20206;-76
2020/12/20 12:33:31;;;;;;;28.80;9.52;;;;;;;;;;4347407;33;20218;-76
2020/12/20 12:35:57;;;;;;;22.27;9.27;;;;;;;;;;4347459;33;20484;-76
2020/12/20 12:38:23;;;;;;;24.75;9.48;;;;;;;;;;4347225;33;20199;-76
2020/12/20 12:40:48;;;;;;;21.92;9.43;;;;;;;;;;4346268;33;20197;-76
2020/12/20 12:43:13;;;;;;;19.23;8.70;;;;;;;;;;4341084;33;20569;-76
2020/12/20 12:45:39;;;;;;;18.52;7.60;;;;;;;;;;4331966;33;20168;-76
2020/12/20 12:48:07;;;;;;;23.77;9.00;;;;;;;;;;4331649;33;20159;-76
2020/12/20 12:50:32;;;;;;;19.83;7.85;;;;;;;;;;4331934;33;20651;-76
2020/12/20 12:52:58;;;;;;;19.52;7.37;;;;;;;;;;4332016;33;20229;-76
2020/12/20 12:55:24;;;;;;;19.27;6.80;;;;;;;;;;4344793;33;20218;-76
2020/12/20 12:57:49;;;;;;;23.62;7.72;;;;;;;;;;4331984;33;20233;-76
2020/12/20 13:00:14;;;;;;;16.40;6.45;;;;;;;;;;4332365;33;20590;-76
2020/12/20 13:02:40;;;;;;;19.58;7.10;;;;;;;;;;4346116;33;20177;-76
2020/12/20 13:05:05;;;;;;;18.65;7.00;;;;;;;;;;4359795;32;20214;-76
2020/12/20 13:07:30;;;;;;;21.37;7.22;;;;;;;;;;4345949;33;20167;-76
2020/12/20 13:09:55;;;;;;;19.50;6.55;;;;;;;;;;4360446;32;20134;-76
2020/12/20 13:12:21;;;;;;;19.10;7.22;;;;;;;;;;4346236;33;20231;-76
2020/12/20 13:14:46;;;;;;;21.95;7.50;;;;;;;;;;4346288;33;20526;-75
2020/12/20 13:17:11;;;;;;;19.33;7.95;;;;;;;;;;4359827;32;20205;-75
2020/12/20 13:19:36;;;;;;;19.23;8.07;;;;;;;;;;4359551;32;20178;-75
2020/12/20 13:22:02;;;;;;;17.87;7.50;;;;;;;;;;4360006;33;20143;-75
2020/12/20 13:24:29;;;;;;;18.85;7.37;;;;;;;;;;4346097;33;20185;-75
2020/12/20 13:26:54;;;;;;;22.45;7.32;;;;;;;;;;4359626;32;20174;-75
2020/12/20 13:29:19;;;;;;;23.00;8.27;;;;;;;;;;4360282;32;20136;-75
2020/12/20 13:31:44;;;;;;;19.77;7.70;;;;;;;;;;4359883;32;20453;-75
2020/12/20 13:34:10;;;;;;;21.30;8.63;;;;;;;;;;4359429;33;20131;-75
2020/12/20 13:36:35;;;;;;;25.65;8.25;;;;;;;;;;4359665;32;20201;-75
2020/12/20 13:39:00;;;;;;;16.02;7.43;;;;;;;;;;4359236;33;20140;-76
2020/12/20 13:41:25;;;;;;;20.58;8.07;;;;;;;;;;4359568;32;20177;-75
2020/12/20 13:43:51;;;;;;;24.02;7.45;;;;;;;;;;4347961;32;20241;-75
2020/12/20 13:46:16;;;;;;;17.75;6.97;;;;;;;;;;4361489;32;20185;-75
2020/12/20 13:48:41;;;;;;;19.70;6.85;;;;;;;;;;4367188;32;20173;-76
2020/12/20 13:51:07;;;;;;;19.37;6.37;;;;;;;;;;4357623;33;20178;-76
2020/12/20 13:53:33;;;;;;;17.42;6.10;;;;;;;;;;4345816;33;20565;-76
2020/12/20 13:55:58;;;;;;;17.50;6.00;;;;;;;;;;4359598;33;20269;-76
2020/12/20 13:58:23;;;;;;;17.67;6.25;;;;;;;;;;4359647;33;20173;-76
2020/12/20 14:00:49;;;;;;;22.83;5.65;;;;;;;;;;4345213;33;20190;-76
2020/12/20 14:03:14;;;;;;;18.45;5.57;;;;;;;;;;4359100;33;20140;-76
2020/12/20 14:05:41;;;;;;;19.98;5.75;;;;;;;;;;4345794;33;20243;-76
2020/12/20 14:08:06;;;;;;;11.98;4.68;;;;;;;;;;4346072;33;20199;-76
2020/12/20 14:10:31;;;;;;;17.87;5.03;;;;;;;;;;4346441;33;20682;-76
2020/12/20 14:13:00;;;;;;;18.83;4.95;;;;;;;;;;4346235;33;20167;-77
2020/12/20 14:15:25;;;;;;;13.80;5.05;;;;;;;;;;4346268;33;20288;-76
2020/12/20 14:17:51;;;;;;;15.00;4.87;;;;;;;;;;4359196;33;20171;-76
2020/12/20 14:20:16;;;;;;;22.42;6.10;;;;;;;;;;4345781;33;20163;-76
2020/12/20 14:22:41;;;;;;;23.33;5.87;;;;;;;;;;4345310;33;20589;-76
2020/12/20 14:25:06;;;;;;;20.98;5.72;;;;;;;;;;4358855;33;20588;-76